• Join FlightAware (Why Join?)
  • Login
  • US Flag 
10:50AM EDT


 

Airport Tracker/Info


-or-


 

Live Flight TrackerFlight Track Log ✈ N911PJ ✈ 21-Jul-2013 ✈ KOLM - KRAP

Flight Track Log - Related Links

Times and Time Zones

All times are in EDT time to prevent confusion due to time zone crossing. See the N911PJ flight status page for this flight to view local times or setup timezone preferences in your user account.

Time Position Orientation Groundspeed Altitude Reporting Facility
EDT Latitude Longitude Course Direction KTS MPH feet Rate Location/Type
01:29PM 46.9319 -122.8764 99° East 179 206 2,600  Level Seattle Center
01:30PM 46.9264 -122.8278 99° East 152 175 4,100 1,680 Climbing Seattle Center
01:31PM 46.8953 -122.7619 125° Southeast 168 193 6,000 1,740 Climbing Seattle Center
01:32PM 46.8650 -122.7017 126° Southeast 182 209 7,800 1,320 Climbing Seattle Center
01:33PM 46.8339 -122.6356 125° Southeast 196 226 8,800 1,020 Climbing Seattle Center
01:34PM 46.7925 -122.5617 129° Southeast 231 266 9,900 1,380 Climbing Seattle Center
01:35PM 46.7689 -122.4797 113° Southeast 203 234 11,700 1,320 Climbing Seattle Center
01:36PM 46.7539 -122.3944 104° East 215 247 12,700 600 Climbing Seattle Center
01:37PM 46.7333 -122.2997 108° East 235 270 13,000 780 Climbing Seattle Center
01:38PM 46.7144 -122.2006 105° East 254 292 14,300 1,200 Climbing Seattle Center
01:39PM 46.7033 -122.1114 100° East 231 266 15,500 1,080 Climbing Seattle Center
01:40PM 46.6942 -122.0189 98° East 233 268 16,600 960 Climbing Seattle Center
01:41PM 46.6917 -121.9258 92° East 234 269 17,500 780 Climbing Seattle Center
01:42PM 46.6997 -121.8308 83° East 235 270 18,300 780 Climbing Seattle Center
01:43PM 46.6931 -121.7325 96° East 243 280 19,200 900 Climbing Seattle Center
01:44PM 46.6892 -121.6156 93° East 245 282 20,200 840 Climbing Seattle Center
01:45PM 46.6844 -121.5167 94° East 253 291 21,000 780 Climbing Seattle Center
01:46PM 46.6792 -121.4147 94° East 254 292 21,900 780 Climbing Seattle Center
01:47PM 46.6731 -121.3100 95° East 258 297 22,700 480 Climbing Seattle Center
01:48PM 46.6656 -121.1972 95° East 279 321 22,900 60 Climbing Seattle Center
01:49PM 46.6572 -121.0736 96° East 300 345 22,900  Level Seattle Center
01:50PM 46.6506 -120.9447 94° East 317 365 22,900  Level Seattle Center
01:51PM 46.6408 -120.8156 96° East 321 369 22,900  Level Seattle Center
01:52PM 46.6311 -120.6592 95° East 324 373 22,900 420 Level Seattle Center
01:53PM 46.6228 -120.5292 95° East 323 372 23,800 1,080 Climbing Seattle Center
01:54PM 46.6144 -120.4244 97° East 272 313 25,100 900 Climbing Seattle Center
01:55PM 46.6072 -120.3133 95° East 272 313 25,700 540 Climbing Seattle Center
01:56PM 46.6000 -120.2006 95° East 277 319 26,300 540 Climbing Seattle Center
01:57PM 46.5928 -120.0864 95° East 281 323 26,900 240 Climbing Seattle Center
01:58PM 46.5850 -119.9686 95° East 292 336 26,900  Level Seattle Center
01:59PM 46.5753 -119.8444 96° East 308 354 26,900  Level Seattle Center
02:00PM 46.5642 -119.6917 96° East 316 364 26,900  Level Seattle Center
02:01PM 46.5556 -119.5636 96° East 318 366 26,900  Level Seattle Center
02:02PM 46.5444 -119.4347 97° East 321 369 26,900  Level Seattle Center
02:03PM 46.5350 -119.3033 96° East 326 375 26,900  Level Seattle Center
02:04PM 46.5242 -119.1739 97° East 324 373 26,900  Level Seattle Center
02:05PM 46.5142 -119.0433 96° East 325 374 26,900  Level Seattle Center
02:07PM 46.5042 -118.9144 96° East 323 372 26,900  Level Seattle Center
02:08PM 46.4939 -118.7747 96° East 321 369 26,900  Level Seattle Center
02:09PM 46.4833 -118.6442 97° East 326 375 26,900  Level Seattle Center
02:10PM 46.4722 -118.5153 97° East 325 374 26,900  Level Seattle Center
02:11PM 46.4631 -118.3844 96° East 327 376 26,900  Level Seattle Center
02:12PM 46.4508 -118.2558 98° East 326 375 26,900  Level Seattle Center
02:13PM 46.4394 -118.1272 97° East 324 373 26,900  Level Seattle Center
02:14PM 46.4289 -117.9989 97° East 323 372 26,900  Level Seattle Center
02:15PM 46.4144 -117.8456 98° East 322 371 26,900  Level Seattle Center
02:16PM 46.4031 -117.7167 97° East 323 372 26,900  Level Seattle Center
02:17PM 46.3911 -117.5900 98° East 320 368 26,900  Level Seattle Center
02:18PM 46.3794 -117.4597 97° East 325 374 26,900  Level Seattle Center
02:19PM 46.3661 -117.3314 99° East 325 374 26,900  Level Seattle Center
02:20PM 46.3544 -117.2044 98° East 322 371 26,900  Level Seattle Center
02:21PM 46.3417 -117.0761 98° East 323 372 26,900  Level Seattle Center
02:22PM 46.3286 -116.9475 98° East 324 373 26,900  Level Seattle Center
02:23PM 46.3164 -116.8200 98° East 323 372 26,900  Level Seattle Center
02:24PM 46.3006 -116.6667 98° East 322 371 26,900  Level Seattle Center
02:25PM 46.2878 -116.5339 98° East 331 381 26,900  Level Seattle Center
02:26PM 46.2744 -116.4042 98° East 330 380 26,900  Level Seattle Center
02:27PM 46.2619 -116.2764 98° East 324 373 26,900  Level Seattle Center
02:28PM 46.2478 -116.1494 99° East 323 372 26,900  Level Seattle Center
02:29PM 46.2347 -116.0211 98° East 323 372 26,900  Level Seattle Center
02:30PM 46.2203 -115.8936 99° East 323 372 26,900  Level Seattle Center
02:31PM 46.2097 -115.7917 98° East 323 372 26,900  Level Salt Lake Center
02:32PM 46.1956 -115.6650 99° East 322 371 26,900  Level Salt Lake Center
02:33PM 46.1817 -115.5378 99° East 322 371 26,900  Level Salt Lake Center
02:34PM 46.1669 -115.4131 100° East 318 366 26,900  Level Salt Lake Center
02:35PM 46.1506 -115.2592 99° East 323 372 26,900  Level Salt Lake Center
02:36PM 46.1353 -115.1292 100° East 320 368 26,900  Level Salt Lake Center
02:37PM 46.1211 -115.0022 99° East 322 371 26,900  Level Salt Lake Center
02:38PM 46.1058 -114.8739 100° East 325 374 26,900  Level Salt Lake Center
02:39PM 46.0900 -114.7417 100° East 321 369 26,900  Level Salt Lake Center
02:40PM 46.0733 -114.5983 99° East 324 373 26,900  Level Salt Lake Center
02:41PM 46.0581 -114.4744 100° East 327 376 26,900  Level Salt Lake Center
02:42PM 46.0422 -114.3419 100° East 320 368 26,900  Level Salt Lake Center
02:43PM 46.0258 -114.2125 100° East 326 375 26,900  Level Salt Lake Center
02:44PM 46.0103 -114.0856 100° East 326 375 26,900  Level Salt Lake Center
02:45PM 45.9950 -113.9581 100° East 326 375 26,900  Level Salt Lake Center
02:46PM 45.9786 -113.8319 101° East 323 372 26,900  Level Salt Lake Center
02:47PM 45.9614 -113.7039 101° East 326 375 26,900  Level Salt Lake Center
02:48PM 45.9439 -113.5689 101° East 326 375 26,900  Level Salt Lake Center
02:49PM 45.9231 -113.4161 101° East 325 374 26,900  Level Salt Lake Center
02:50PM 45.9075 -113.2886 100° East 326 375 26,900  Level Salt Lake Center
02:51PM 45.8906 -113.1622 101° East 324 373 26,900  Level Salt Lake Center
02:52PM 45.8733 -113.0347 101° East 325 374 26,900  Level Salt Lake Center
02:53PM 45.8558 -112.9089 101° East 323 372 26,900  Level Salt Lake Center
02:54PM 45.8386 -112.7819 101° East 324 373 26,900  Level Salt Lake Center
02:56PM 45.8192 -112.6289 100° East 325 374 26,900  Level Salt Lake Center
02:57PM 45.7992 -112.5031 103° East 326 375 26,900  Level Salt Lake Center
02:58PM 45.7825 -112.3747 101° East 328 377 26,900  Level Salt Lake Center
02:59PM 45.7639 -112.2458 102° East 330 380 27,000  Climbing Salt Lake Center
03:00PM 45.7467 -112.1194 101° East 327 376 26,900 -60 Descending Salt Lake Center
03:01PM 45.7281 -111.9942 102° East 325 374 26,900  Level Salt Lake Center
03:02PM 45.7067 -111.8428 101° East 324 373 26,900  Level Salt Lake Center
03:03PM 45.6883 -111.7183 102° East 322 371 26,900  Level Salt Lake Center
03:04PM 45.6700 -111.5942 102° East 320 368 26,900  Level Salt Lake Center
03:05PM 45.6514 -111.4719 102° East 319 367 26,900  Level Salt Lake Center
03:06PM 45.6328 -111.3511 102° East 316 364 26,900  Level Salt Lake Center
03:07PM 45.6111 -111.2067 102° East 315 362 26,900  Level Salt Lake Center
03:08PM 45.5936 -111.0858 102° East 316 364 26,900  Level Salt Lake Center
03:09PM 45.5747 -110.9647 103° East 316 364 26,900  Level Salt Lake Center
03:10PM 45.5553 -110.8425 103° East 317 365 26,900  Level Salt Lake Center
03:11PM 45.5369 -110.7214 102° East 317 365 26,900  Level Salt Lake Center
03:12PM 45.5178 -110.5997 103° East 316 364 26,900  Level Salt Lake Center
03:13PM 45.4978 -110.4706 102° East 313 360 26,900  Level Salt Lake Center
03:14PM 45.4733 -110.3231 103° East 319 367 27,000  Climbing Salt Lake Center
03:15PM 45.4544 -110.2028 103° East 315 362 26,900  Descending Salt Lake Center
03:16PM 45.4342 -110.0808 103° East 317 365 27,000  Climbing Salt Lake Center
03:17PM 45.4164 -109.9581 102° East 317 365 26,900 -60 Descending Salt Lake Center
03:18PM 45.3961 -109.8367 103° East 316 364 26,900  Level Salt Lake Center
03:19PM 45.3758 -109.7147 103° East 317 365 27,000  Climbing Salt Lake Center
03:20PM 45.3497 -109.5706 104° East 316 364 26,900 -60 Descending Salt Lake Center
03:21PM 45.3306 -109.4489 103° East 317 365 26,900  Level Salt Lake Center
03:22PM 45.3108 -109.3264 103° East 319 367 26,900  Level Salt Lake Center
03:23PM 45.2897 -109.2100 104° East 308 354 26,900  Level Salt Lake Center
03:24PM 45.2694 -109.0917 104° East 308 354 26,900  Level Salt Lake Center
03:26PM 45.2494 -108.9719 103° East 312 359 26,900  Level Salt Lake Center
03:27PM 45.2233 -108.8281 104° East 313 360 26,900  Level Salt Lake Center
03:28PM 45.2019 -108.7081 104° East 314 361 26,900  Level Salt Lake Center
03:29PM 45.1806 -108.5875 104° East 314 361 26,900  Level Salt Lake Center
03:30PM 45.1600 -108.4664 103° East 314 361 26,900  Level Salt Lake Center
03:31PM 45.1378 -108.3458 105° East 315 362 26,900  Level Salt Lake Center
03:32PM 45.1164 -108.2256 104° East 315 362 26,900  Level Salt Lake Center
03:33PM 45.0942 -108.1064 105° East 312 359 27,000  Climbing Salt Lake Center
03:34PM 45.0711 -107.9644 103° East 306 352 26,900 -60 Descending Salt Lake Center
03:35PM 45.0478 -107.8439 105° East 312 359 26,900  Level Salt Lake Center
03:36PM 45.0258 -107.7236 104° East 313 360 26,900  Level Salt Lake Center
03:37PM 45.0033 -107.6044 105° East 312 359 26,900 3,360 Level Salt Lake Center
03:38PM 44.9800 -107.4881 106° East 309 356 33,900  Climbing Salt Lake Center
03:39PM 44.9575 -107.3697 105° East 310 357 27,000 -3,420 Descending Salt Lake Center
03:40PM 44.9350 -107.2517 105° East 311 358 27,000 -60 Level Salt Lake Center
03:41PM 44.9103 -107.1125 104° East 306 352 26,900 -60 Descending Salt Lake Center
03:42PM 44.8869 -106.9950 106° East 310 357 26,900  Level Salt Lake Center
03:43PM 44.8650 -106.8781 105° East 309 356 26,900  Level Salt Lake Center
03:44PM 44.8417 -106.7619 106° East 309 356 26,900  Level Salt Lake Center
03:45PM 44.8194 -106.6444 105° East 310 357 26,900  Level Salt Lake Center
03:46PM 44.7956 -106.5275 106° East 311 358 26,900  Level Salt Lake Center
03:47PM 44.7689 -106.3889 105° East 308 354 26,900  Level Salt Lake Center
03:48PM 44.7539 -106.3206 107° East 308 354 26,900  Level Denver Center
03:49PM 44.7217 -106.1569 105° East 311 358 26,900  Level Denver Center
03:50PM 44.6986 -106.0400 105° East 309 356 26,900 -60 Level Salt Lake Center
03:51PM 44.6719 -105.9125 106° East 305 351 26,800 -420 Descending Salt Lake Center
03:52PM 44.6506 -105.8069 106° East 318 366 26,100 -780 Descending Denver Center
03:53PM 44.6244 -105.6761 106° East 329 379 25,200 -840 Descending Salt Lake Center
03:54PM 44.6031 -105.5828 108° East 334 384 24,500 -1,080 Descending Denver Center
03:55PM 44.5653 -105.4014 106° East 347 399 23,100 -1,140 Descending Denver Center
03:57PM 44.5375 -105.2636 106° East 349 402 22,100 -1,020 Descending Salt Lake Center
03:58PM 44.5114 -105.1392 106° East 349 402 21,000 -1,080 Descending Salt Lake Center
03:59PM 44.4844 -105.0156 107° East 349 402 20,000 -1,200 Descending Denver Center
04:00PM 44.4531 -104.8700 107° East 349 402 18,700 -1,080 Descending Denver Center
04:01PM 44.4256 -104.7456 107° East 350 403 17,600 -1,140 Descending Denver Center
04:02PM 44.3917 -104.5839 106° East 342 394 16,200 -1,260 Descending Denver Center
04:03PM 44.3603 -104.4447 107° East 339 390 15,000 -1,080 Descending Denver Center
04:04PM 44.3350 -104.3281 107° East 335 386 14,000 -1,080 Descending Denver Center
04:05PM 44.3061 -104.1972 107° East 327 376 12,800 -1,020 Descending Denver Center
04:06PM 44.2847 -104.1267 113° Southeast 309 356 12,300 -780 Descending Denver Center
04:07PM 44.2644 -104.0108 104° East 293 337 11,500 -960 Descending Denver Center
04:08PM 44.2519 -103.9050 99° East 287 330 10,400 -1,080 Descending Denver Center
04:09PM 44.2397 -103.8022 99° East 255 293 9,400 -900 Descending Denver Center
04:10PM 44.2342 -103.7181 95° East 223 257 8,600 -840 Descending Denver Center
04:11PM 44.2156 -103.6314 107° East 218 251 7,800 -720 Descending Denver Center
04:12PM 44.1900 -103.5558 115° Southeast 228 262 7,200 -600 Descending Denver Center
04:13PM 44.1586 -103.4700 117° Southeast 234 269 6,700 -540 Descending Denver Center
04:14PM 44.1339 -103.3856 112° Southeast 230 265 6,200 -480 Descending Denver Center
04:15PM 44.1169 -103.3136 108° East 205 236 5,800 -600 Descending Denver Center
04:16PM 44.0958 -103.2397 112° Southeast 187 215 5,100 -600 Descending Denver Center
04:17PM 44.0781 -103.1769 111° Southeast 178 205 4,600 -420 Descending Denver Center
04:18PM 44.0742 -103.1072 94° East 172 198 4,300 -300 Descending Denver Center
04:20PM 44.0453 -103.0574 90° East  Level Estimated
04:27PM 44.0453 -103.0574 90° East  Level Estimated